Rechercher aéroport 
image banner adimage banner ad
image banner ad

SVJZ - Hacienda El Oasis

Situé à Barinas, Venezuela

ICAO - , IATA -

Données fournies par Airmate  

Information générale

Coordonnées: N8°22'30" W69°58'24"
Élévation : feet MSL.
 
Voir autres Aéroports à Barinas

Données opérationnelles

Accessible au public
Heure actuelle UTC:
Heure actuelle locale:
METAR: SVBI 261202Z AUTO 31002KT NCD 25/21 Q1017
Voir NOTAMs / SUP AIP / TFR affectant cet aéroport [VIEW]
Fréquences de communication: [VIEW]

Pistes:

Identifiant RWYQFULongueur (ft)Largeur (ft)SurfaceLDA (ft)
1100
2900

Coordonnées de l'aéroport

Adresse: Barinas Venezuela

Vue satellite de SVJZ